Flight Track Log - Related Links

Times and Time Zones

All times are in EDT time to prevent confusion due to time zone crossing. See the N9HM flight status page for this flight to view local times or setup timezone preferences in your user account.

Time Position Orientation Groundspeed Altitude Reporting Facility
EDT Latitude Longitude Course Direction KTS MPH feet Rate Location/Type
Sun 11:14:58 AM 35.2511 -120.6683 301° West 107 123 1,100  Level Los Angeles Center
Sun 11:16:04 AM 35.2658 -120.6978 301° West 101 116 2,100 898 Climbing Los Angeles Center
Sun 11:17:05 AM 35.2747 -120.7292 289° West 97 112 3,000 844 Climbing Los Angeles Center
Sun 11:18:12 AM 35.2486 -120.7236 170° South 120 138 3,900 703 Climbing Los Angeles Center
Sun 11:19:13 AM 35.2378 -120.6872 110° East 115 132 4,500 585 Climbing Los Angeles Center
Sun 11:20:15 AM 35.2289 -120.6469 105° East 120 138 5,100 581 Climbing Los Angeles Center
Sun 11:21:17 AM 35.2206 -120.6075 104° East 120 138 5,700 585 Climbing Los Angeles Center
Sun 11:22:18 AM 35.2125 -120.5678 104° East 121 139 6,300 537 Climbing Los Angeles Center
Sun 11:23:20 AM 35.2042 -120.5275 104° East 121 139 6,800 532 Climbing Los Angeles Center
Sun 11:24:22 AM 35.1931 -120.4783 105° East 124 143 7,400 489 Climbing Los Angeles Center
Sun 11:25:35 AM 35.1839 -120.4372 105° East 125 144 7,900 489 Climbing Los Angeles Center
Sun 11:26:37 AM 35.1722 -120.3883 106° East 125 144 8,500 484 Climbing Los Angeles Center
Sun 11:27:39 AM 35.1650 -120.3472 102° East 124 143 8,900 435 Climbing Los Angeles Center
Sun 11:28:41 AM 35.1567 -120.3061 104° East 124 143 9,400 435 Climbing Los Angeles Center
Sun 11:29:43 AM 35.1475 -120.2642 105° East 126 145 9,800 390 Climbing Los Angeles Center
Sun 11:30:44 AM 35.1378 -120.2222 106° East 128 147 10,200 390 Climbing Los Angeles Center
Sun 11:31:46 AM 35.1267 -120.1731 105° East 125 144 10,600 339 Climbing Los Angeles Center
Sun 11:32:48 AM 35.1181 -120.1367 106° East 127 146 10,900 194 Climbing Los Angeles Center
Sun 11:33:50 AM 35.1061 -120.0844 106° East 130 150 11,000 48 Climbing Los Angeles Center
Sun 11:34:52 AM 35.0956 -120.0367 105° East 140 161 11,000  Level Los Angeles Center
Sun 11:35:53 AM 35.0844 -119.9875 105° East 149 171 11,000  Level Los Angeles Center
Sun 11:36:55 AM 35.0744 -119.9378 104° East 150 173 11,000  Level Los Angeles Center
Sun 11:37:57 AM 35.0639 -119.8894 105° East 149 171 11,000  Level Los Angeles Center
Sun 11:38:59 AM 35.0536 -119.8403 104° East 149 171 11,000  Level Los Angeles Center
Sun 11:40:01 AM 35.0400 -119.7822 106° East 149 171 11,000  Level Los Angeles Center
Sun 11:41:02 AM 35.0272 -119.7350 108° East 147 169 11,000  Level Los Angeles Center
Sun 11:42:04 AM 35.0189 -119.6861 102° East 146 168 11,000  Level Los Angeles Center
Sun 11:43:06 AM 35.0069 -119.6383 107° East 147 169 11,000  Level Los Angeles Center
Sun 11:44:08 AM 34.9953 -119.5903 106° East 147 169 11,000  Level Los Angeles Center
Sun 11:45:09 AM 34.9856 -119.5433 104° East 145 167 11,000  Level Los Angeles Center
Sun 11:46:11 AM 34.9742 -119.4956 106° East 145 167 11,000  Level Los Angeles Center
Sun 11:47:13 AM 34.9603 -119.4372 106° East 148 170 11,000  Level Los Angeles Center
Sun 11:48:15 AM 34.9508 -119.3892 103° East 146 168 11,000  Level Los Angeles Center
Sun 11:49:17 AM 34.9392 -119.3414 107° East 146 168 11,000  Level Los Angeles Center
Sun 11:50:18 AM 34.9275 -119.2944 107° East 145 167 11,000  Level Los Angeles Center
Sun 11:51:20 AM 34.9183 -119.2472 103° East 145 167 11,000  Level Los Angeles Center
Sun 11:52:22 AM 34.9067 -119.2017 107° East 141 162 11,000 48 Level Los Angeles Center
Sun 11:53:24 AM 34.8933 -119.1444 106° East 146 168 11,100 48 Climbing Los Angeles Center
Sun 11:54:26 AM 34.8939 -119.0944 89° East 148 170 11,100  Level Los Angeles Center
Sun 11:55:28 AM 34.8972 -119.0453 85° East 147 169 11,100  Level Los Angeles Center
Sun 11:56:29 AM 34.8914 -118.9975 98° East 146 168 11,100  Level Los Angeles Center
Sun 11:57:31 AM 34.8928 -118.9467 88° East 149 171 11,100  Level Los Angeles Center
Sun 11:58:33 AM 34.8944 -118.8981 88° East 146 168 11,100  Level Los Angeles Center
Sun 11:59:35 AM 34.8922 -118.8383 93° East 147 169 11,100  Level Los Angeles Center
Sun 12:00:37 PM 34.8908 -118.7894 92° East 146 168 11,100 -49 Level Los Angeles Center
Sun 12:01:38 PM 34.8911 -118.7383 90° East 150 173 11,000  Descending Los Angeles Center
Sun 12:02:40 PM 34.8903 -118.6908 91° East 143 165 11,100 48 Climbing Los Angeles Center
Sun 12:03:42 PM 34.8900 -118.6394 90° East 149 171 11,100  Level Los Angeles Center
Sun 12:04:44 PM 34.8881 -118.5903 93° East 147 169 11,100 -48 Level Los Angeles Center
Sun 12:05:46 PM 34.8883 -118.5361 90° East 157 181 11,000 -48 Descending Los Angeles Center
Sun 12:06:48 PM 34.8861 -118.4800 93° East 140 161 11,000 48 Level Los Angeles Center
Sun 12:07:50 PM 34.8886 -118.4339 86° East 146 168 11,100 49 Climbing Los Angeles Center
Sun 12:08:51 PM 34.8881 -118.3853 91° East 144 166 11,100 -49 Level Los Angeles Center
Sun 12:09:53 PM 34.8858 -118.3378 93° East 142 163 11,000 -48 Descending Los Angeles Center
Sun 12:10:55 PM 34.8861 -118.2803 90° East 142 163 11,000  Level Los Angeles Center
Sun 12:11:57 PM 34.8861 -118.2325 90° East 141 162 11,000 48 Level Los Angeles Center
Sun 12:12:59 PM 34.8842 -118.1836 93° East 144 166 11,100 48 Climbing Los Angeles Center
Sun 12:14:01 PM 34.8836 -118.1319 91° East 150 173 11,100  Level Los Angeles Center
Sun 12:15:03 PM 34.8822 -118.0828 92° East 148 170 11,100  Level Los Angeles Center
Sun 12:16:05 PM 34.8817 -118.0325 91° East 149 171 11,100  Level Los Angeles Center
Sun 12:17:07 PM 34.8814 -117.9836 90° East 146 168 11,100  Level Los Angeles Center
Sun 12:18:08 PM 34.8792 -117.9228 93° East 149 171 11,100  Level Los Angeles Center
Sun 12:19:10 PM 34.8783 -117.8725 91° East 150 173 11,100  Level Los Angeles Center
Sun 12:20:12 PM 34.8767 -117.8233 92° East 148 170 11,100  Level Los Angeles Center
Sun 12:21:14 PM 34.8769 -117.7728 90° East 148 170 11,100  Level Los Angeles Center
Sun 12:22:16 PM 34.8758 -117.7228 92° East 149 171 11,100  Level Los Angeles Center
Sun 12:23:18 PM 34.8742 -117.6617 92° East 152 175 11,100  Level Los Angeles Center
Sun 12:24:20 PM 34.8739 -117.6108 90° East 151 174 11,100  Level Los Angeles Center
Sun 12:25:22 PM 34.8728 -117.5611 92° East 150 173 11,100  Level Los Angeles Center
Sun 12:26:24 PM 34.8708 -117.5097 93° East 152 175 11,100  Level Los Angeles Center
Sun 12:27:26 PM 34.8694 -117.4586 92° East 153 176 11,100  Level Los Angeles Center
Sun 12:28:28 PM 34.8692 -117.4000 90° East 147 169 11,100  Level Los Angeles Center
Sun 12:29:30 PM 34.8667 -117.3489 93° East 149 171 11,100  Level Los Angeles Center
Sun 12:30:32 PM 34.8661 -117.2983 91° East 150 173 11,100  Level Los Angeles Center
Sun 12:31:34 PM 34.8647 -117.2478 92° East 150 173 11,100  Level Los Angeles Center
Sun 12:32:36 PM 34.8639 -117.1975 91° East 150 173 11,100  Level Los Angeles Center
Sun 12:33:38 PM 34.8628 -117.1481 92° East 149 171 11,100  Level Los Angeles Center
Sun 12:34:40 PM 34.8608 -117.0897 92° East 146 168 11,100  Level Los Angeles Center
Sun 12:35:42 PM 34.8597 -117.0403 92° East 146 168 11,100 48 Level Los Angeles Center
Sun 12:36:44 PM 34.8581 -116.9917 92° East 146 168 11,200  Climbing Los Angeles Center
Sun 12:37:46 PM 34.8564 -116.9422 92° East 146 168 11,100 -48 Descending Los Angeles Center
Sun 12:38:48 PM 34.8561 -116.8931 90° East 146 168 11,100  Level Los Angeles Center
Sun 12:39:50 PM 34.8547 -116.8428 92° East 146 168 11,100  Level Los Angeles Center
Sun 12:40:52 PM 34.8531 -116.7839 92° East 147 169 11,100  Level Los Angeles Center
Sun 12:41:54 PM 34.8508 -116.7361 93° East 145 167 11,100  Level Los Angeles Center
Sun 12:42:56 PM 34.8508 -116.6878 90° East 144 166 11,100  Level Los Angeles Center
Sun 12:43:58 PM 34.8494 -116.6389 92° East 144 166 11,100  Level Los Angeles Center
Sun 12:45:00 PM 34.8472 -116.5894 93° East 145 167 11,100  Level Los Angeles Center
Sun 12:46:02 PM 34.8456 -116.5389 92° East 148 170 11,100  Level Los Angeles Center
Sun 12:47:04 PM 34.8442 -116.4800 92° East 146 168 11,100  Level Los Angeles Center
Sun 12:48:06 PM 34.8425 -116.4322 92° East 145 167 11,100  Level Los Angeles Center
Sun 12:49:08 PM 34.8408 -116.3836 92° East 144 166 11,100  Level Los Angeles Center
Sun 12:50:10 PM 34.8397 -116.3350 92° East 144 166 11,100  Level Los Angeles Center
Sun 12:51:12 PM 34.8383 -116.2883 92° East 142 163 11,100  Level Los Angeles Center
Sun 12:52:14 PM 34.8372 -116.2314 91° East 140 161 11,100  Level Los Angeles Center
Sun 12:53:16 PM 34.8344 -116.1847 94° East 140 161 11,100  Level Los Angeles Center
Sun 12:54:18 PM 34.8331 -116.1372 92° East 140 161 11,100  Level Los Angeles Center
Sun 12:55:20 PM 34.8311 -116.0906 93° East 139 160 11,100  Level Los Angeles Center
Sun 12:56:22 PM 34.8294 -116.0422 92° East 141 162 11,100  Level Los Angeles Center
Sun 12:57:24 PM 34.8281 -115.9964 92° East 139 160 11,100  Level Los Angeles Center
Sun 12:58:26 PM 34.8272 -115.9397 91° East 139 160 11,100  Level Los Angeles Center
Sun 12:59:28 PM 34.8250 -115.8933 93° East 139 160 11,100  Level Los Angeles Center
Sun 01:00:31 PM 34.8236 -115.8464 92° East 139 160 11,100  Level Los Angeles Center
Sun 01:01:33 PM 34.8231 -115.8000 91° East 139 160 11,100  Level Los Angeles Center
Sun 01:02:35 PM 34.8206 -115.7528 94° East 139 160 11,100  Level Los Angeles Center
Sun 01:03:37 PM 34.8183 -115.7061 93° East 139 160 11,100  Level Los Angeles Center
Sun 01:04:39 PM 34.8164 -115.6486 92° East 141 162 11,100  Level Los Angeles Center
Sun 01:05:41 PM 34.8144 -115.6025 93° East 139 160 11,100  Level Los Angeles Center
Sun 01:06:43 PM 34.8136 -115.5556 91° East 137 158 11,100  Level Los Angeles Center
Sun 01:07:45 PM 34.8114 -115.5097 93° East 136 157 11,100  Level Los Angeles Center
Sun 01:09:00 PM 34.8094 -115.4533 92° East 138 159 11,100  Level Los Angeles Center
Sun 01:10:02 PM 34.8078 -115.4064 92° East 140 161 11,100  Level Los Angeles Center
Sun 01:11:04 PM 34.8056 -115.3483 93° East 141 162 11,100  Level Los Angeles Center
Sun 01:12:06 PM 34.8036 -115.3017 93° East 140 161 11,100 32 Level Los Angeles Center
Sun 01:14:10 PM 34.7994 -115.2081 93° East 140 161 11,200 32 Climbing Los Angeles Center
Sun 01:15:12 PM 34.7983 -115.1606 92° East 139 160 11,200  Level Los Angeles Center
Sun 01:16:14 PM 34.7947 -115.1128 95° East 140 161 11,200  Level Los Angeles Center
Sun 01:17:16 PM 34.7939 -115.0558 91° East 141 162 11,200  Level Los Angeles Center
Sun 01:18:18 PM 34.7919 -115.0072 93° East 142 163 11,200  Level Los Angeles Center
Sun 01:19:20 PM 34.7908 -114.9586 92° East 143 165 11,200  Level Los Angeles Center
Sun 01:20:22 PM 34.7869 -114.9150 96° East 139 160 11,200 34 Level Los Angeles Center
Sun 01:22:18 PM 34.7844 -114.8172 92° East 140 161 11,300 34 Climbing Albuquerque Center
Sun 01:23:20 PM 34.7825 -114.7689 93° East 141 162 11,300  Level Albuquerque Center
Sun 01:24:22 PM 34.7794 -114.7242 95° East 139 160 11,300 -45 Level Albuquerque Center
Sun 01:25:33 PM 34.7761 -114.6667 94° East 143 165 11,200 -45 Descending Los Angeles Center
Sun 01:26:35 PM 34.7742 -114.6189 93° East 143 165 11,200 48 Level Los Angeles Center
Sun 01:27:37 PM 34.7728 -114.5725 92° East 140 161 11,300  Climbing Los Angeles Center
Sun 01:28:40 PM 34.7700 -114.5236 94° East 143 165 11,200 -48 Descending Los Angeles Center
Sun 01:29:41 PM 34.7667 -114.4686 94° East 138 159 11,200  Level Los Angeles Center
Sun 01:30:43 PM 34.7656 -114.4219 92° East 138 159 11,200 48 Level Los Angeles Center
Sun 01:31:45 PM 34.7672 -114.3758 87° East 138 159 11,300 48 Climbing Los Angeles Center
Sun 01:32:48 PM 34.7639 -114.3297 95° East 137 158 11,300  Level Los Angeles Center
Sun 01:33:50 PM 34.7644 -114.2822 89° East 140 161 11,300  Level Los Angeles Center
Sun 01:34:52 PM 34.7619 -114.2381 94° East 134 154 11,300  Level Los Angeles Center
Sun 01:35:54 PM 34.7597 -114.1842 93° East 134 154 11,300  Level Los Angeles Center
Sun 01:36:56 PM 34.7597 -114.1378 90° East 137 158 11,300  Level Los Angeles Center
Sun 01:37:58 PM 34.7583 -114.0903 92° East 139 160 11,300  Level Los Angeles Center
Sun 01:39:00 PM 34.7575 -114.0442 91° East 138 159 11,300  Level Los Angeles Center
Sun 01:40:15 PM 34.7544 -113.9889 94° East 137 158 11,300  Level Los Angeles Center
Sun 01:41:17 PM 34.7539 -113.9419 91° East 138 159 11,300  Level Los Angeles Center
Sun 01:42:19 PM 34.7544 -113.8850 89° East 141 162 11,300 59 Level Los Angeles Center
Sun 01:42:59 PM 34.7536 -113.8561 92° East 140 161 11,400 59 Climbing Albuquerque Center
Sun 01:44:01 PM 34.7508 -113.8108 94° East 138 159 11,400  Level Albuquerque Center
Sun 01:45:03 PM 34.7489 -113.7628 93° East 137 158 11,400  Level Albuquerque Center
Sun 01:46:05 PM 34.7475 -113.7083 92° East 139 160 11,400  Level Albuquerque Center
Sun 01:47:07 PM 34.7464 -113.6606 92° East 142 163 11,400  Level Albuquerque Center
Sun 01:48:09 PM 34.7453 -113.6119 92° East 143 165 11,400  Level Albuquerque Center
Sun 01:49:11 PM 34.7442 -113.5639 92° East 144 166 11,400  Level Albuquerque Center
Sun 01:50:14 PM 34.7417 -113.5158 94° East 143 165 11,400  Level Albuquerque Center
Sun 01:51:16 PM 34.7403 -113.4625 92° East 137 158 11,400  Level Albuquerque Center
Sun 01:52:18 PM 34.7378 -113.4172 94° East 135 155 11,400  Level Albuquerque Center
Sun 01:53:20 PM 34.7378 -113.3692 90° East 140 161 11,400  Level Albuquerque Center
Sun 01:54:22 PM 34.7331 -113.3239 97° East 139 160 11,400 -97 Level Albuquerque Center
Sun 01:55:24 PM 34.7333 -113.2758 90° East 140 161 11,200 -194 Descending Albuquerque Center
Sun 01:56:26 PM 34.7342 -113.2147 89° East 147 169 11,000 -194 Descending Albuquerque Center
Sun 01:57:28 PM 34.7289 -113.1672 98° East 146 168 10,800 -48 Descending Albuquerque Center
Sun 01:58:30 PM 34.7386 -113.1186 76° East 154 177 10,900 97 Climbing Albuquerque Center
Sun 01:59:32 PM 34.7517 -113.0706 72° East 148 170 11,000 97 Climbing Albuquerque Center
Sun 02:00:34 PM 34.7669 -113.0236 68° East 150 173 11,100  Climbing Albuquerque Center
Sun 02:01:36 PM 34.7822 -112.9700 71° East 144 166 11,000 48 Descending Albuquerque Center
Sun 02:02:38 PM 34.7919 -112.9236 76° East 142 163 11,200 48 Climbing Albuquerque Center
Sun 02:03:40 PM 34.8031 -112.8747 75° East 146 168 11,100  Descending Albuquerque Center
Sun 02:04:42 PM 34.8167 -112.8281 70° East 146 168 11,200 -48 Climbing Albuquerque Center
Sun 02:05:44 PM 34.8356 -112.7839 62° Northeast 148 170 11,000 -97 Descending Albuquerque Center
Sun 02:06:46 PM 34.8389 -112.7289 86° East 139 160 11,000 48 Level Albuquerque Center
Sun 02:07:48 PM 34.8392 -112.6850 90° East 132 152 11,100 97 Climbing Albuquerque Center
Sun 02:08:50 PM 34.8389 -112.6419 90° East 130 150 11,200  Climbing Albuquerque Center
Sun 02:09:52 PM 34.8394 -112.5978 89° East 131 151 11,100 -97 Descending Albuquerque Center
Sun 02:10:54 PM 34.8414 -112.5531 87° East 132 152 11,000 48 Descending Albuquerque Center
Sun 02:11:56 PM 34.8444 -112.5000 86° East 136 157 11,200 97 Climbing Albuquerque Center
Sun 02:12:58 PM 34.8442 -112.4536 90° East 136 157 11,200  Level Albuquerque Center
Sun 02:14:00 PM 34.8444 -112.4064 90° East 139 160 11,200 -97 Level Albuquerque Center
Sun 02:15:02 PM 34.8444 -112.3589 90° East 142 163 11,000 -242 Descending Albuquerque Center
Sun 02:16:04 PM 34.8439 -112.3117 91° East 142 163 10,700 -194 Descending Albuquerque Center
Sun 02:17:06 PM 34.8447 -112.2558 89° East 140 161 10,600 -339 Descending Albuquerque Center
Sun 02:18:08 PM 34.8436 -112.2103 92° East 137 158 10,000 -387 Descending Albuquerque Center
Sun 02:19:10 PM 34.8442 -112.1669 89° East 133 153 9,800 -240 Descending Albuquerque Center
Sun 02:20:13 PM 34.8428 -112.1264 92° East 125 144 9,500 -384 Descending Albuquerque Center
Sun 02:21:15 PM 34.8433 -112.0803 89° East 121 139 9,000 -484 Descending Albuquerque Center

Login

Don't have an account? Register now (free) for customized features, flight alerts, and more!